Time;durP1;ratioP1;P1;durP2;ratioP2;P2;SDS_P1;SDS_P2;PMS_P1;PMS_P2;Temp;Humidity;BMP_temperature;BMP_pressure;BME280_temperature;BME280_humidity;BME280_pressure;Samples;Min_cycle;Max_cycle;Signal;HPM_P1;HPM_P2
2021/10/21 00:01:44;;;;;;;6.47;3.20;;;;;;;18.43;63.31;98862.19;4846771;28;123019;-71
2021/10/21 00:04:12;;;;;;;5.72;3.20;;;;;;;18.45;63.30;98862.00;4846643;29;113768;-72
2021/10/21 00:06:39;;;;;;;7.45;2.90;;;;;;;18.46;63.34;98867.22;4853982;29;114715;-72
2021/10/21 00:09:06;;;;;;;7.13;3.05;;;;;;;18.47;63.12;98844.75;4851517;29;125428;-71
2021/10/21 00:11:34;;;;;;;6.15;2.85;;;;;;;18.47;62.93;98851.97;4832921;29;123347;-72
2021/10/21 00:14:03;;;;;;;5.70;3.13;;;;;;;18.47;63.35;98815.25;4850143;28;114572;-71
2021/10/21 00:16:31;;;;;;;5.93;2.85;;;;;;;18.47;63.10;98809.91;4836488;29;114138;-72
2021/10/21 00:18:58;;;;;;;6.38;3.05;;;;;;;18.46;63.20;98781.44;4848434;29;123809;-71
2021/10/21 00:21:26;;;;;;;8.18;3.05;;;;;;;18.46;63.16;98749.28;4844120;29;123057;-70
2021/10/21 00:23:53;;;;;;;5.18;3.17;;;;;;;18.46;63.35;98738.53;4850902;29;114044;-71
2021/10/21 00:26:20;;;;;;;4.30;2.70;;;;;;;18.46;63.32;98738.53;4847609;29;113452;-71
2021/10/21 00:28:47;;;;;;;5.78;2.88;;;;;;;18.48;63.42;98744.56;4848823;29;124152;-71
2021/10/21 00:31:14;;;;;;;4.97;2.63;;;;;;;18.49;63.23;98742.72;4854025;29;122946;-71
2021/10/21 00:33:41;;;;;;;5.32;2.55;;;;;;;18.48;63.16;98725.81;4851296;28;113149;-71
2021/10/21 00:36:08;;;;;;;3.95;2.25;;;;;;;18.48;62.94;98731.16;4853776;29;114209;-71
2021/10/21 00:38:36;;;;;;;3.75;2.00;;;;;;;18.48;62.81;98725.81;4848710;29;124084;-71
2021/10/21 00:41:04;;;;;;;3.10;1.80;;;;;;;18.48;62.40;98712.41;4854920;29;125196;-72
2021/10/21 00:43:39;;;;;;;4.57;1.60;;;;;;;18.44;61.90;98724.47;4848905;29;114524;-71
2021/10/21 00:46:08;;;;;;;2.63;1.50;;;;;;;18.41;61.77;98716.78;4853568;29;113819;-70
2021/10/21 00:48:37;;;;;;;3.33;1.55;;;;;;;18.39;61.81;98721.47;4853745;29;124128;-71
2021/10/21 00:51:07;;;;;;;4.03;1.65;;;;;;;18.34;61.45;98718.47;4851825;28;122708;-71
2021/10/21 00:53:34;;;;;;;1.50;1.10;;;;;;;18.31;61.35;98713.47;4850530;29;114346;-71
2021/10/21 00:56:03;;;;;;;2.75;1.58;;;;;;;18.26;61.29;98722.00;4846836;29;114775;-71
2021/10/21 00:58:32;;;;;;;2.83;1.52;;;;;;;18.23;61.16;98721.50;4852306;29;124704;-72
2021/10/21 01:01:00;;;;;;;3.35;1.25;;;;;;;18.18;61.13;98724.69;4851930;29;123994;-71
2021/10/21 01:03:28;;;;;;;4.40;1.52;;;;;;;18.16;60.99;98733.91;4854648;29;115026;-71
2021/10/21 01:05:55;;;;;;;3.97;1.10;;;;;;;18.14;60.75;98717.16;4837815;29;113970;-72
2021/10/21 01:08:23;;;;;;;3.92;1.38;;;;;;;18.11;60.73;98712.16;4852209;29;123802;-71
2021/10/21 01:10:51;;;;;;;2.42;1.10;;;;;;;18.08;60.72;98708.81;4844609;29;124494;-71
2021/10/21 01:13:18;;;;;;;2.95;1.13;;;;;;;18.05;60.67;98714.50;4848925;29;114561;-72
2021/10/21 01:15:45;;;;;;;2.88;1.10;;;;;;;18.04;60.70;98718.19;4851072;29;113743;-70
2021/10/21 01:18:12;;;;;;;4.57;1.10;;;;;;;18.03;60.68;98713.84;4853118;28;123025;-71
2021/10/21 01:20:39;;;;;;;2.97;1.00;;;;;;;18.01;60.34;98707.81;4852904;28;123234;-71
2021/10/21 01:23:06;;;;;;;2.92;0.80;;;;;;;18.00;60.37;98711.50;4845869;29;115168;-70
2021/10/21 01:25:33;;;;;;;2.45;0.88;;;;;;;18.00;59.86;98716.84;4853717;29;113971;-71
2021/10/21 01:28:03;;;;;;;2.20;0.90;;;;;;;17.98;59.72;98708.16;4846323;28;124117;-71
2021/10/21 01:30:30;;;;;;;1.60;0.90;;;;;;;17.97;59.52;98706.50;4850748;29;124408;-71
2021/10/21 01:32:57;;;;;;;2.13;1.08;;;;;;;17.95;59.70;98703.16;4847979;29;116157;-70
2021/10/21 01:35:25;;;;;;;2.10;0.80;;;;;;;17.95;59.40;98708.50;4836027;29;113991;-71
2021/10/21 01:37:52;;;;;;;1.63;0.82;;;;;;;17.92;59.35;98698.13;4839736;29;122996;-71
2021/10/21 01:40:20;;;;;;;3.15;1.00;;;;;;;17.92;59.29;98714.19;4848098;29;123931;-71
2021/10/21 01:42:47;;;;;;;2.40;0.95;;;;;;;17.88;59.08;98696.78;4847402;29;114115;-72
2021/10/21 01:45:21;;;;;;;1.92;0.88;;;;;;;17.83;58.74;98683.03;4829236;29;112871;-70
2021/10/21 01:47:51;;;;;;;1.70;0.80;;;;;;;17.78;58.52;98680.88;4846645;29;123819;-71
2021/10/21 01:50:19;;;;;;;1.73;0.70;;;;;;;17.73;57.96;98687.75;4846603;28;124268;-71
2021/10/21 01:52:47;;;;;;;1.88;0.80;;;;;;;17.68;57.63;98681.03;4853199;29;115640;-72
2021/10/21 01:55:15;;;;;;;2.97;0.70;;;;;;;17.64;57.33;98685.03;4850212;29;114834;-71
2021/10/21 01:57:42;;;;;;;2.45;0.60;;;;;;;17.58;57.08;98675.00;4846851;29;123064;-71
2021/10/21 02:00:15;;;;;;;2.50;0.63;;;;;;;17.53;56.77;98677.34;4850708;28;122803;-71
2021/10/21 02:02:44;;;;;;;1.67;0.60;;;;;;;17.48;56.88;98679.72;4848565;29;114301;-72
2021/10/21 02:05:12;;;;;;;1.30;0.60;;;;;;;17.44;56.69;98673.00;4855614;29;113682;-70
2021/10/21 02:07:41;;;;;;;2.03;0.60;;;;;;;17.39;56.57;98670.00;4851807;28;123419;-73
2021/10/21 02:10:17;;;;;;;0.98;0.60;;;;;;;17.34;56.66;98677.69;4856402;29;124243;-71
2021/10/21 02:12:45;;;;;;;2.00;0.80;;;;;;;17.30;56.69;98661.13;4851555;29;114372;-71
2021/10/21 02:15:12;;;;;;;2.95;0.73;;;;;;;17.25;56.43;98688.38;4852168;29;114508;-71
2021/10/21 02:17:39;;;;;;;2.50;0.80;;;;;;;17.22;56.56;98669.16;4845878;29;123824;-72
2021/10/21 02:20:08;;;;;;;2.80;0.70;;;;;;;17.18;56.24;98663.28;4852760;29;123881;-71
2021/10/21 02:22:37;;;;;;;2.88;0.80;;;;;;;17.13;56.45;98660.25;4856920;29;114267;-71
2021/10/21 02:25:05;;;;;;;2.05;0.60;;;;;;;17.09;56.15;98653.56;4850346;29;113483;-72
2021/10/21 02:27:33;;;;;;;4.00;0.65;;;;;;;17.07;56.16;98647.56;4853853;28;122924;-72
2021/10/21 02:30:00;;;;;;;3.45;0.70;;;;;;;17.03;56.12;98654.25;4850919;29;124624;-71
2021/10/21 02:32:27;;;;;;;3.65;0.70;;;;;;;17.00;56.24;98659.91;4856318;29;114100;-71
2021/10/21 02:34:55;;;;;;;2.50;0.60;;;;;;;16.98;56.10;98661.91;4861657;29;113883;-71
2021/10/21 02:37:22;;;;;;;2.55;0.77;;;;;;;16.92;56.31;98653.53;4858793;29;124036;-70
2021/10/21 02:39:49;;;;;;;2.25;0.60;;;;;;;16.91;56.11;98651.88;4856963;29;123085;-71
2021/10/21 02:42:16;;;;;;;1.23;0.57;;;;;;;16.90;56.08;98655.53;4855037;29;115035;-71
2021/10/21 02:44:43;;;;;;;2.30;0.60;;;;;;;16.87;56.24;98655.84;4837387;29;113510;-72
2021/10/21 02:47:10;;;;;;;2.22;0.70;;;;;;;16.83;56.37;98654.53;4854071;28;123013;-71
2021/10/21 02:49:37;;;;;;;4.53;0.82;;;;;;;16.78;56.60;98651.44;4851126;29;123659;-70
2021/10/21 02:52:05;;;;;;;2.40;0.80;;;;;;;16.74;56.60;98655.47;4857823;29;113791;-70
2021/10/21 02:54:32;;;;;;;3.60;0.70;;;;;;;16.69;56.54;98655.13;4854734;29;114035;-71
2021/10/21 02:56:59;;;;;;;4.32;0.70;;;;;;;16.66;56.48;98640.25;4846071;29;123506;-71
2021/10/21 02:59:26;;;;;;;2.55;0.70;;;;;;;16.61;56.73;98639.03;4845282;28;123894;-71
2021/10/21 03:01:53;;;;;;;3.63;0.80;;;;;;;16.59;56.77;98646.41;4853040;29;114255;-71
2021/10/21 03:04:21;;;;;;;2.20;0.73;;;;;;;16.54;56.87;98629.03;4851626;29;113111;-71
2021/10/21 03:06:48;;;;;;;2.25;0.80;;;;;;;16.51;56.98;98650.69;4849420;29;124170;-71
2021/10/21 03:09:15;;;;;;;3.05;0.60;;;;;;;16.48;57.05;98639.50;4853149;29;123863;-71
2021/10/21 03:11:42;;;;;;;3.58;0.60;;;;;;;16.44;57.10;98628.28;4839180;29;114182;-71
2021/10/21 03:14:09;;;;;;;4.40;0.90;;;;;;;16.42;57.10;98637.47;4853017;29;114326;-71
2021/10/21 03:16:38;;;;;;;1.85;0.60;;;;;;;16.38;57.36;98628.94;4850218;29;124707;-71
2021/10/21 03:19:06;;;;;;;5.47;1.13;;;;;;;16.35;57.52;98623.94;4833688;29;123196;-71
2021/10/21 03:21:33;;;;;;;5.18;0.90;;;;;;;16.31;57.53;98633.25;4861290;28;114547;-71
2021/10/21 03:24:01;;;;;;;3.85;0.88;;;;;;;16.28;57.76;98628.25;4848796;29;113813;-70
2021/10/21 03:26:28;;;;;;;3.90;0.85;;;;;;;16.24;57.85;98637.59;4851767;29;124771;-72
2021/10/21 03:28:55;;;;;;;4.05;1.02;;;;;;;16.20;57.94;98625.53;4850901;28;122949;-71
2021/10/21 03:31:22;;;;;;;4.78;0.80;;;;;;;16.14;57.88;98632.34;4847580;29;115196;-72
2021/10/21 03:33:49;;;;;;;5.45;0.90;;;;;;;16.10;58.23;98629.16;4849986;29;113150;-71
2021/10/21 03:36:17;;;;;;;1.75;0.73;;;;;;;16.04;58.27;98637.81;4850095;29;124003;-72
2021/10/21 03:38:44;;;;;;;2.33;0.70;;;;;;;15.98;58.55;98638.44;4853297;29;123732;-72
2021/10/21 03:41:11;;;;;;;2.55;0.77;;;;;;;15.93;58.70;98624.72;4849482;28;113453;-71
2021/10/21 03:43:38;;;;;;;2.85;0.70;;;;;;;15.89;58.75;98628.72;4852097;29;114484;-71
2021/10/21 03:46:05;;;;;;;1.90;0.70;;;;;;;15.84;59.00;98620.31;4851554;29;123841;-71
2021/10/21 03:48:32;;;;;;;2.58;0.88;;;;;;;15.80;59.21;98619.81;4851192;29;124309;-71
2021/10/21 03:50:59;;;;;;;3.17;0.85;;;;;;;15.75;59.16;98611.44;4849661;29;114041;-72
2021/10/21 03:53:26;;;;;;;3.30;0.90;;;;;;;15.71;59.24;98626.91;4847693;28;112745;-71
2021/10/21 03:55:54;;;;;;;3.28;0.90;;;;;;;15.68;59.52;98621.88;4848475;28;123455;-71
2021/10/21 03:58:21;;;;;;;4.18;0.80;;;;;;;15.66;59.63;98609.69;4848421;29;124183;-71
2021/10/21 04:00:48;;;;;;;2.88;0.80;;;;;;;15.63;59.78;98608.16;4851552;29;113992;-70
2021/10/21 04:03:15;;;;;;;3.70;0.85;;;;;;;15.61;59.73;98612.81;4847884;29;113484;-70
2021/10/21 04:05:43;;;;;;;3.05;0.90;;;;;;;15.62;59.75;98614.50;4846325;29;124834;-71
2021/10/21 04:08:10;;;;;;;4.15;0.80;;;;;;;15.60;59.87;98608.47;4848841;29;123687;-70
2021/10/21 04:10:37;;;;;;;2.67;0.80;;;;;;;15.59;59.93;98604.13;4848839;29;114938;-70
2021/10/21 04:13:04;;;;;;;3.95;0.80;;;;;;;15.57;59.90;98603.44;4849407;29;114584;-70
2021/10/21 04:15:31;;;;;;;2.97;0.90;;;;;;;15.55;60.13;98594.75;4852972;29;125017;-71
2021/10/21 04:17:58;;;;;;;4.05;0.90;;;;;;;15.53;60.24;98591.41;4851557;29;124037;-71
2021/10/21 04:20:25;;;;;;;4.03;0.77;;;;;;;15.51;60.09;98578.22;4852351;28;114991;-70
2021/10/21 04:22:52;;;;;;;3.97;0.75;;;;;;;15.52;60.21;98587.06;4852773;29;114884;-70
2021/10/21 04:25:19;;;;;;;2.53;0.65;;;;;;;15.52;60.38;98573.72;4851693;29;123794;-70
2021/10/21 04:27:47;;;;;;;3.35;0.85;;;;;;;15.52;60.44;98568.38;4849185;29;123674;-69
2021/10/21 04:30:14;;;;;;;3.10;0.70;;;;;;;15.51;60.42;98580.06;4854149;29;114604;-70
2021/10/21 04:32:42;;;;;;;2.50;0.70;;;;;;;15.51;60.47;98582.75;4848024;29;113035;-69
2021/10/21 04:35:09;;;;;;;4.20;0.80;;;;;;;15.50;60.28;98567.72;4848220;29;124416;-68
2021/10/21 04:37:36;;;;;;;1.85;0.60;;;;;;;15.50;60.40;98567.72;4852401;29;124199;-70
2021/10/21 04:40:05;;;;;;;1.48;0.73;;;;;;;15.51;60.60;98572.06;4849101;29;113583;-70
2021/10/21 04:42:32;;;;;;;3.05;0.80;;;;;;;15.50;60.50;98567.72;4852824;29;113916;-71
2021/10/21 04:44:59;;;;;;;3.35;0.70;;;;;;;15.50;60.43;98565.03;4845724;29;123602;-70
2021/10/21 04:47:27;;;;;;;2.45;0.70;;;;;;;15.50;60.72;98567.72;4849627;29;123798;-71
2021/10/21 04:49:54;;;;;;;2.72;0.60;;;;;;;15.51;60.67;98556.06;4847477;29;114993;-70
2021/10/21 04:52:21;;;;;;;2.08;0.70;;;;;;;15.51;60.69;98558.72;4849902;29;115949;-71
2021/10/21 04:54:48;;;;;;;3.53;0.68;;;;;;;15.52;60.86;98563.06;4851397;29;123662;-70
2021/10/21 04:57:15;;;;;;;4.32;0.70;;;;;;;15.53;60.80;98554.06;4846154;29;124743;-71
2021/10/21 04:59:42;;;;;;;3.25;0.68;;;;;;;15.54;60.89;98566.44;4845700;29;114711;-70
2021/10/21 05:02:09;;;;;;;1.80;0.63;;;;;;;15.53;60.75;98576.25;4852819;29;113311;-70
2021/10/21 05:04:37;;;;;;;2.47;0.70;;;;;;;15.53;60.72;98575.41;4844950;28;122780;-71
2021/10/21 05:07:04;;;;;;;2.60;0.70;;;;;;;15.51;60.81;98583.56;4851075;29;123805;-71
2021/10/21 05:09:31;;;;;;;1.35;0.60;;;;;;;15.50;60.83;98581.06;4849809;29;115071;-71
2021/10/21 05:11:58;;;;;;;2.38;0.70;;;;;;;15.46;60.87;98590.38;4848472;29;114673;-71
2021/10/21 05:14:26;;;;;;;3.17;0.90;;;;;;;15.45;60.96;98594.03;4846446;29;124154;-70
2021/10/21 05:16:53;;;;;;;1.70;0.70;;;;;;;15.43;61.02;98601.38;4863321;28;125099;-71
2021/10/21 05:19:20;;;;;;;3.80;0.90;;;;;;;15.41;61.25;98608.66;4846660;29;114008;-71
2021/10/21 05:21:53;;;;;;;2.42;0.70;;;;;;;15.38;61.04;98610.66;4857454;29;113725;-70
2021/10/21 05:24:20;;;;;;;1.42;0.75;;;;;;;15.36;61.16;98617.97;4837030;29;123014;-69
2021/10/21 05:26:47;;;;;;;5.93;0.90;;;;;;;15.36;61.35;98623.31;4850429;29;124215;-71
2021/10/21 05:29:14;;;;;;;2.65;0.90;;;;;;;15.32;61.34;98627.28;4851450;28;114576;-70
2021/10/21 05:31:42;;;;;;;4.15;1.10;;;;;;;15.32;61.06;98642.44;4853786;29;113919;-71
2021/10/21 05:34:10;;;;;;;2.83;1.15;;;;;;;15.29;61.38;98659.56;4848785;29;123876;-72
2021/10/21 05:36:37;;;;;;;2.90;1.08;;;;;;;15.28;61.53;98689.91;4854070;29;123107;-70
2021/10/21 05:39:04;;;;;;;2.13;0.82;;;;;;;15.25;61.11;98695.53;4855055;29;114213;-71
2021/10/21 05:41:31;;;;;;;3.35;1.02;;;;;;;15.22;61.22;98737.69;4851439;28;113615;-71
2021/10/21 05:43:58;;;;;;;2.38;0.70;;;;;;;15.16;61.24;98760.44;4854730;29;124016;-70
2021/10/21 05:46:28;;;;;;;1.42;0.80;;;;;;;15.11;61.16;98800.06;4853786;29;123741;-71
2021/10/21 05:48:58;;;;;;;1.35;0.60;;;;;;;15.06;61.11;98818.34;4853749;28;115172;-70
2021/10/21 05:51:26;;;;;;;1.23;0.60;;;;;;;15.02;60.95;98886.28;4853106;29;113753;-71
2021/10/21 05:53:53;;;;;;;1.00;0.47;;;;;;;14.95;60.84;98913.50;4852455;29;124498;-71
2021/10/21 05:56:21;;;;;;;3.08;0.50;;;;;;;14.90;60.56;98958.41;4854490;29;123798;-71
2021/10/21 05:58:48;;;;;;;1.13;0.52;;;;;;;14.84;60.46;98996.28;4851069;29;115461;-71
2021/10/21 06:01:16;;;;;;;0.80;0.40;;;;;;;14.78;60.54;99034.16;4852245;29;114792;-70
2021/10/21 06:03:43;;;;;;;0.95;0.40;;;;;;;14.74;60.45;99075.41;4857238;29;122609;-70
2021/10/21 06:06:10;;;;;;;1.33;0.50;;;;;;;14.68;60.43;99097.28;4853658;29;123872;-72
2021/10/21 06:08:37;;;;;;;1.20;0.50;;;;;;;14.64;60.43;99135.84;4852422;28;114575;-70
2021/10/21 06:11:04;;;;;;;1.42;0.52;;;;;;;14.60;60.56;99154.75;4852674;29;113752;-71
2021/10/21 06:13:35;;;;;;;2.33;0.70;;;;;;;14.58;60.48;99194.03;4852975;29;124830;-71
2021/10/21 06:16:03;;;;;;;2.70;0.60;;;;;;;14.55;60.54;99217.41;4848904;29;127125;-71
2021/10/21 06:18:32;;;;;;;1.48;0.50;;;;;;;14.53;60.72;99257.47;4851027;29;114248;-70
2021/10/21 06:21:00;;;;;;;1.42;0.50;;;;;;;14.47;60.65;99266.03;4855481;29;113912;-71
2021/10/21 06:23:27;;;;;;;1.27;0.60;;;;;;;14.44;60.70;99292.91;4855376;29;124266;-72
2021/10/21 06:25:55;;;;;;;2.58;0.50;;;;;;;14.41;60.82;99314.50;4846431;29;124739;-71
2021/10/21 06:28:28;;;;;;;3.22;0.70;;;;;;;14.38;60.82;99328.06;4846640;28;113652;-72
2021/10/21 06:30:56;;;;;;;2.78;0.80;;;;;;;14.35;60.96;99336.31;4851986;29;113830;-70
2021/10/21 06:33:23;;;;;;;4.13;0.80;;;;;;;14.34;61.05;99366.59;4845778;29;123542;-71
2021/10/21 06:35:50;;;;;;;4.10;0.68;;;;;;;14.32;60.95;99384.53;4849203;28;123951;-71
2021/10/21 06:38:17;;;;;;;4.28;0.75;;;;;;;14.30;61.19;99407.78;4832645;28;113260;-72
2021/10/21 06:40:44;;;;;;;5.57;1.00;;;;;;;14.29;61.34;99428.22;4854051;29;114025;-73
2021/10/21 06:43:11;;;;;;;3.55;0.88;;;;;;;14.28;61.20;99428.34;4850341;29;124660;-72
2021/10/21 06:45:38;;;;;;;7.78;1.10;;;;;;;14.27;61.55;99440.00;4854357;28;123869;-71
2021/10/21 06:48:05;;;;;;;4.20;0.90;;;;;;;14.27;61.33;99471.94;4835273;29;114144;-71
2021/10/21 06:50:32;;;;;;;4.20;0.90;;;;;;;14.26;61.50;99455.13;4850471;29;114694;-71
2021/10/21 06:52:59;;;;;;;5.97;1.00;;;;;;;14.25;61.46;99481.88;4849871;29;124838;-71
2021/10/21 06:55:27;;;;;;;4.97;1.00;;;;;;;14.24;61.52;99493.50;4849975;29;123456;-71
2021/10/21 06:57:58;;;;;;;4.90;1.10;;;;;;;14.25;61.62;99489.88;4854083;29;114334;-71
2021/10/21 07:00:27;;;;;;;8.50;0.93;;;;;;;14.24;61.47;99520.13;4841574;29;113826;-71
2021/10/21 07:02:57;;;;;;;4.40;1.20;;;;;;;14.23;61.63;99526.44;4850367;29;124900;-71
2021/10/21 07:05:26;;;;;;;6.15;1.25;;;;;;;14.22;61.59;99538.88;4852802;28;123328;-71
2021/10/21 07:07:53;;;;;;;4.82;1.02;;;;;;;14.23;61.50;99558.41;4849840;29;114642;-71
2021/10/21 07:10:23;;;;;;;4.97;1.30;;;;;;;14.23;61.68;99566.38;4850279;28;113901;-70
2021/10/21 07:12:50;;;;;;;5.70;1.33;;;;;;;14.25;61.70;99585.75;4848428;29;123719;-72
2021/10/21 07:15:18;;;;;;;7.13;1.13;;;;;;;14.26;61.74;99595.41;4852652;29;123845;-71
2021/10/21 07:17:45;;;;;;;6.68;1.45;;;;;;;14.28;61.88;99620.09;4845412;29;113159;-72
2021/10/21 07:20:15;;;;;;;7.93;1.50;;;;;;;14.30;62.13;99636.84;4849303;28;114010;-72
2021/10/21 07:22:42;;;;;;;8.32;1.52;;;;;;;14.31;61.89;99638.50;4849456;29;123829;-71
2021/10/21 07:25:10;;;;;;;6.53;1.52;;;;;;;14.32;61.89;99656.19;4852867;28;123639;-71
2021/10/21 07:27:37;;;;;;;6.40;1.33;;;;;;;14.32;61.63;99666.84;4839315;29;114125;-72
2021/10/21 07:30:11;;;;;;;5.13;1.27;;;;;;;14.30;61.55;99690.09;4837294;29;113322;-72
2021/10/21 07:32:40;;;;;;;4.68;1.10;;;;;;;14.29;61.36;99699.03;4837446;29;123845;-72
2021/10/21 07:35:08;;;;;;;4.93;1.52;;;;;;;14.28;61.36;99702.66;4844404;29;124639;-72
2021/10/21 07:37:36;;;;;;;6.22;1.25;;;;;;;14.26;61.46;99720.59;4850731;29;115687;-72
2021/10/21 07:40:05;;;;;;;8.57;1.45;;;;;;;14.26;61.31;99741.88;4847493;29;115149;-72
2021/10/21 07:42:34;;;;;;;5.70;1.40;;;;;;;14.26;61.43;99747.22;4844005;29;124084;-71
2021/10/21 07:45:01;;;;;;;8.65;1.20;;;;;;;14.27;61.33;99764.91;4846290;28;123603;-72
2021/10/21 07:47:28;;;;;;;8.80;1.30;;;;;;;14.27;61.22;99775.56;4864204;28;113696;-72
2021/10/21 07:49:55;;;;;;;5.45;1.30;;;;;;;14.27;61.18;99788.88;4842985;29;114475;-72
2021/10/21 07:52:23;;;;;;;6.57;1.88;;;;;;;14.27;61.00;99786.22;4851227;29;124577;-72
2021/10/21 07:54:51;;;;;;;8.70;1.60;;;;;;;14.27;60.93;99802.19;4848190;29;123919;-72
2021/10/21 07:57:20;;;;;;;8.02;1.52;;;;;;;14.28;61.00;99811.88;4851263;29;114158;-73
2021/10/21 07:59:48;;;;;;;8.30;1.65;;;;;;;14.29;60.77;99816.25;4826459;29;113283;-70
2021/10/21 08:02:16;;;;;;;8.35;1.20;;;;;;;14.31;60.67;99835.59;4849452;29;123882;-72
2021/10/21 08:04:48;;;;;;;5.30;1.10;;;;;;;14.32;60.57;99837.31;4848132;29;123795;-71
2021/10/21 08:07:16;;;;;;;6.22;1.42;;;;;;;14.34;60.50;99846.03;4846784;29;114174;-72
2021/10/21 08:09:43;;;;;;;5.90;1.40;;;;;;;14.37;60.34;99846.66;4851984;28;113624;-71
2021/10/21 08:12:10;;;;;;;5.07;1.23;;;;;;;14.39;60.25;99859.84;4848051;29;124165;-72
2021/10/21 08:14:38;;;;;;;4.15;0.90;;;;;;;14.42;60.26;99854.28;4850517;29;123129;-71
2021/10/21 08:17:05;;;;;;;9.18;1.70;;;;;;;14.46;60.23;99871.72;4852190;29;114313;-70
2021/10/21 08:19:32;;;;;;;7.80;1.10;;;;;;;14.50;60.15;99878.50;4852517;28;113058;-72
2021/10/21 08:22:01;;;;;;;9.80;1.40;;;;;;;14.53;60.14;99878.28;4849456;29;123882;-72
2021/10/21 08:24:28;;;;;;;7.20;1.27;;;;;;;14.56;59.72;99878.06;4850587;29;123845;-72
2021/10/21 08:26:55;;;;;;;11.88;1.70;;;;;;;14.60;59.70;99884.88;4844398;29;118232;-72
2021/10/21 08:29:23;;;;;;;7.43;1.23;;;;;;;14.65;59.62;99903.16;4850288;29;114461;-73
2021/10/21 08:32:01;;;;;;;9.60;1.50;;;;;;;14.72;59.59;99898.22;4847179;29;124387;-70
2021/10/21 08:34:33;;;;;;;4.20;1.38;;;;;;;14.78;59.60;99898.56;4842982;29;124504;-72
2021/10/21 08:37:00;;;;;;;7.15;1.20;;;;;;;14.85;59.52;99912.28;4848252;28;113652;-72
2021/10/21 08:39:35;;;;;;;5.75;1.15;;;;;;;14.90;59.34;99907.44;4847488;29;113980;-72
2021/10/21 08:42:05;;;;;;;8.02;1.33;;;;;;;14.97;59.17;99918.47;4847922;29;125085;-72
2021/10/21 08:44:37;;;;;;;7.68;1.20;;;;;;;15.03;59.07;99934.00;4857549;28;123755;-71
2021/10/21 08:47:05;;;;;;;5.30;0.98;;;;;;;15.11;59.16;99936.06;4849234;29;113791;-72
2021/10/21 08:49:35;;;;;;;6.50;1.30;;;;;;;15.20;59.02;99940.69;4838340;29;114072;-72
2021/10/21 08:52:03;;;;;;;8.43;1.30;;;;;;;15.27;58.94;99931.19;4847856;29;124138;-72
2021/10/21 08:54:31;;;;;;;5.30;1.40;;;;;;;15.36;58.55;99941.13;4848737;29;123742;-71
2021/10/21 08:57:01;;;;;;;5.13;1.23;;;;;;;15.43;58.23;99951.34;4854110;29;114657;-72
2021/10/21 08:59:29;;;;;;;11.60;2.05;;;;;;;15.49;58.14;99956.19;4851375;29;113711;-73
2021/10/21 09:02:08;;;;;;;5.03;1.33;;;;;;;15.54;57.91;99957.50;4849291;29;123745;-72
2021/10/21 09:09:43;;;;;;;4.97;1.00;;;;;;;15.64;57.16;99970.97;4845137;29;112997;-72
2021/10/21 09:12:14;;;;;;;6.35;1.50;;;;;;;15.69;57.32;99967.91;4852104;29;123847;-72
2021/10/21 09:14:45;;;;;;;5.82;1.10;;;;;;;15.73;57.17;99959.59;4853093;29;124356;-72
2021/10/21 09:17:15;;;;;;;5.40;1.27;;;;;;;15.79;57.07;99973.41;4853408;29;114926;-72
2021/10/21 09:19:43;;;;;;;7.22;1.13;;;;;;;15.86;56.96;99987.94;4853189;29;113902;-73
2021/10/21 09:22:23;;;;;;;5.70;1.13;;;;;;;15.86;56.69;99995.94;4854845;29;124547;-72
2021/10/21 09:24:53;;;;;;;6.05;1.35;;;;;;;15.86;56.41;100001.28;4842291;29;122717;-73
2021/10/21 09:27:29;;;;;;;5.30;1.23;;;;;;;15.81;56.50;100024.88;4854118;29;114682;-74
2021/10/21 09:29:57;;;;;;;6.55;1.33;;;;;;;15.71;56.43;100052.25;4841491;29;112740;-75
2021/10/21 09:32:32;;;;;;;3.28;1.10;;;;;;;15.57;56.39;100056.00;4854555;29;124115;-74
2021/10/21 09:35:02;;;;;;;2.97;0.77;;;;;;;15.43;56.54;100058.09;4853370;29;124141;-74
2021/10/21 09:37:40;;;;;;;4.28;0.80;;;;;;;15.27;56.49;100069.91;4842850;28;113026;-73
2021/10/21 09:40:26;;;;;;;3.60;0.80;;;;;;;15.11;56.83;100066.75;4842788;29;114258;-74
2021/10/21 09:42:59;;;;;;;3.85;0.93;;;;;;;14.95;57.04;100070.56;4843663;29;124416;-74
2021/10/21 09:45:31;;;;;;;4.45;1.10;;;;;;;14.85;57.17;100074.91;4850809;28;123901;-74
2021/10/21 09:48:00;;;;;;;2.55;1.20;;;;;;;14.76;57.37;100070.25;4860938;28;114243;-73
2021/10/21 09:50:29;;;;;;;3.42;0.90;;;;;;;14.69;57.53;100071.69;4841935;29;113729;-72
2021/10/21 09:53:29;;;;;;;3.47;1.33;;;;;;;14.61;57.77;100082.91;4857656;28;124203;-73
2021/10/21 09:56:00;;;;;;;5.03;1.50;;;;;;;14.53;58.16;100086.13;4839246;29;124018;-73
2021/10/21 09:58:33;;;;;;;4.97;1.55;;;;;;;14.48;58.25;100088.25;4841332;29;114072;-73
2021/10/21 10:01:10;;;;;;;7.90;2.10;;;;;;;14.45;58.46;100103.63;4845069;29;113289;-74
2021/10/21 10:03:43;;;;;;;6.50;2.00;;;;;;;14.41;58.57;100103.03;4857275;29;124725;-72
2021/10/21 10:06:12;;;;;;;6.03;1.80;;;;;;;14.39;59.08;100110.25;4856577;28;122715;-75
2021/10/21 10:08:39;;;;;;;7.80;1.70;;;;;;;14.34;58.89;100104.44;4851999;29;114326;-75
2021/10/21 10:11:12;;;;;;;3.33;1.63;;;;;;;14.31;59.14;100115.28;4852663;29;115717;-73
2021/10/21 10:13:40;;;;;;;4.18;1.60;;;;;;;14.31;59.18;100112.63;4845410;29;124418;-72
2021/10/21 10:16:07;;;;;;;8.95;1.80;;;;;;;14.34;59.76;100123.06;4845116;29;123100;-72
2021/10/21 10:18:41;;;;;;;5.47;2.00;;;;;;;14.37;59.71;100125.50;4838455;28;114333;-72
2021/10/21 10:21:10;;;;;;;5.45;2.00;;;;;;;14.41;59.86;100135.00;4847923;29;114215;-72
2021/10/21 10:23:56;;;;;;;4.22;1.83;;;;;;;14.44;60.06;100129.41;4850564;29;124130;-72
2021/10/21 10:26:41;;;;;;;7.60;1.67;;;;;;;14.46;60.03;100132.81;4863135;28;123819;-72
2021/10/21 10:29:15;;;;;;;;;;;;;;;14.48;59.84;100136.22;4833782;29;113023;-71
2021/10/21 10:31:47;;;;;;;4.20;1.50;;;;;;;14.51;60.03;100136.00;4849582;29;113884;-72
2021/10/21 10:34:32;;;;;;;4.20;1.52;;;;;;;14.51;59.96;100141.34;4850390;29;123873;-71
2021/10/21 10:37:12;;;;;;;3.28;1.65;;;;;;;14.50;60.05;100150.28;4847398;29;124548;-71
2021/10/21 10:39:45;;;;;;;6.68;1.95;;;;;;;14.51;60.08;100151.16;4849884;29;114193;-72
2021/10/21 10:42:13;;;;;;;5.05;1.88;;;;;;;14.53;60.28;100166.06;4856714;29;114132;-72
2021/10/21 10:44:40;;;;;;;4.93;2.20;;;;;;;14.57;60.33;100148.91;4850224;28;122963;-71
2021/10/21 10:47:12;;;;;;;3.75;1.98;;;;;;;14.58;60.30;100155.13;4854464;29;124274;-72
2021/10/21 10:49:39;;;;;;;5.60;2.10;;;;;;;14.57;60.19;100167.56;4849098;28;113124;-72
2021/10/21 10:52:17;;;;;;;3.78;2.10;;;;;;;14.57;60.18;100167.56;4854500;29;114170;-71
2021/10/21 10:54:47;;;;;;;4.72;2.00;;;;;;;14.57;60.15;100178.22;4848965;29;123286;-71
2021/10/21 10:57:34;;;;;;;4.05;2.00;;;;;;;14.54;60.18;100170.44;4852724;29;125878;-71
2021/10/21 11:00:40;;;;;;;4.45;1.90;;;;;;;14.51;60.08;100167.97;4846513;29;114675;-71
2021/10/21 11:03:11;;;;;;;4.23;2.13;;;;;;;14.51;60.30;100170.66;4852545;29;114991;-70
2021/10/21 11:05:44;;;;;;;4.80;2.03;;;;;;;14.51;60.18;100183.97;4847381;29;123981;-72
2021/10/21 11:08:16;;;;;;;7.40;2.35;;;;;;;14.54;60.36;100182.88;4835103;28;123673;-72
2021/10/21 11:10:46;;;;;;;4.75;1.90;;;;;;;14.54;60.29;100178.44;4844693;29;114238;-71
2021/10/21 11:13:28;;;;;;;5.20;1.58;;;;;;;14.55;60.38;100190.78;4849906;29;113995;-71
2021/10/21 11:15:56;;;;;;;2.85;1.58;;;;;;;14.60;60.80;100186.00;4847594;29;123588;-71
2021/10/21 11:18:34;;;;;;;4.88;1.50;;;;;;;14.70;60.98;100193.34;4840418;29;125129;-72
2021/10/21 11:21:03;;;;;;;2.92;1.20;;;;;;;14.78;60.74;100202.47;4849911;29;114170;-72
2021/10/21 11:23:30;;;;;;;2.90;1.10;;;;;;;14.84;60.44;100193.16;4851016;29;113823;-71
2021/10/21 11:26:02;;;;;;;3.25;0.90;;;;;;;14.87;60.45;100195.63;4847143;29;126299;-71
2021/10/21 11:28:32;;;;;;;4.68;0.90;;;;;;;14.90;60.35;100206.06;4851522;29;123725;-71
2021/10/21 11:31:01;;;;;;;2.75;0.82;;;;;;;14.91;60.17;100202.41;4848448;29;114369;-71
2021/10/21 11:33:29;;;;;;;3.58;0.90;;;;;;;14.92;60.30;100190.81;4849541;29;114141;-71
2021/10/21 11:36:00;;;;;;;2.97;0.77;;;;;;;14.96;59.93;100199.44;4851760;29;123883;-70
2021/10/21 11:38:31;;;;;;;2.10;1.05;;;;;;;14.97;60.14;100202.00;4852238;29;124347;-72